sensor_id;sensor_type;location;lat;lon;timestamp;P1;durP1;ratioP1;P2;durP2;ratioP2
10059;SDS011;5069;49.306;8.636;2023-02-15T00:03:00;40.53;;;21.10;;
10059;SDS011;5069;49.306;8.636;2023-02-15T00:06:02;41.57;;;21.33;;
10059;SDS011;5069;49.306;8.636;2023-02-15T00:09:04;35.60;;;21.50;;
10059;SDS011;5069;49.306;8.636;2023-02-15T00:12:06;43.30;;;21.57;;
10059;SDS011;5069;49.306;8.636;2023-02-15T00:15:07;41.87;;;21.50;;
10059;SDS011;5069;49.306;8.636;2023-02-15T00:18:09;41.03;;;18.53;;
10059;SDS011;5069;49.306;8.636;2023-02-15T00:21:10;36.90;;;20.00;;
10059;SDS011;5069;49.306;8.636;2023-02-15T00:24:12;47.50;;;19.70;;
10059;SDS011;5069;49.306;8.636;2023-02-15T00:27:15;54.83;;;18.30;;
10059;SDS011;5069;49.306;8.636;2023-02-15T00:30:16;43.27;;;19.50;;
10059;SDS011;5069;49.306;8.636;2023-02-15T00:33:18;42.43;;;18.83;;
10059;SDS011;5069;49.306;8.636;2023-02-15T00:36:19;37.70;;;17.57;;
10059;SDS011;5069;49.306;8.636;2023-02-15T00:39:22;31.80;;;18.23;;
10059;SDS011;5069;49.306;8.636;2023-02-15T00:42:24;33.53;;;17.73;;
10059;SDS011;5069;49.306;8.636;2023-02-15T00:45:26;29.37;;;17.30;;
10059;SDS011;5069;49.306;8.636;2023-02-15T00:48:27;30.03;;;17.47;;
10059;SDS011;5069;49.306;8.636;2023-02-15T00:51:29;34.80;;;18.23;;
10059;SDS011;5069;49.306;8.636;2023-02-15T00:54:30;44.37;;;17.53;;
10059;SDS011;5069;49.306;8.636;2023-02-15T00:57:32;33.80;;;18.23;;
10059;SDS011;5069;49.306;8.636;2023-02-15T01:00:33;38.03;;;18.70;;
10059;SDS011;5069;49.306;8.636;2023-02-15T01:03:35;31.93;;;17.87;;
10059;SDS011;5069;49.306;8.636;2023-02-15T01:06:37;34.57;;;18.37;;
10059;SDS011;5069;49.306;8.636;2023-02-15T01:09:38;37.60;;;18.47;;
10059;SDS011;5069;49.306;8.636;2023-02-15T01:12:40;31.97;;;18.43;;
10059;SDS011;5069;49.306;8.636;2023-02-15T01:15:42;30.00;;;17.70;;
10059;SDS011;5069;49.306;8.636;2023-02-15T01:18:44;36.50;;;18.60;;
10059;SDS011;5069;49.306;8.636;2023-02-15T01:21:46;32.87;;;18.00;;
10059;SDS011;5069;49.306;8.636;2023-02-15T01:24:50;37.10;;;16.80;;
10059;SDS011;5069;49.306;8.636;2023-02-15T01:27:52;40.73;;;17.87;;
10059;SDS011;5069;49.306;8.636;2023-02-15T01:30:54;32.53;;;17.60;;
10059;SDS011;5069;49.306;8.636;2023-02-15T01:33:57;31.20;;;18.00;;
10059;SDS011;5069;49.306;8.636;2023-02-15T01:36:58;30.13;;;18.03;;
10059;SDS011;5069;49.306;8.636;2023-02-15T01:40:00;33.13;;;18.20;;
10059;SDS011;5069;49.306;8.636;2023-02-15T01:43:10;37.33;;;16.63;;
10059;SDS011;5069;49.306;8.636;2023-02-15T01:46:13;27.90;;;16.93;;
10059;SDS011;5069;49.306;8.636;2023-02-15T01:49:17;29.87;;;17.13;;
10059;SDS011;5069;49.306;8.636;2023-02-15T01:52:21;26.80;;;16.63;;
10059;SDS011;5069;49.306;8.636;2023-02-15T01:55:25;28.23;;;16.50;;
10059;SDS011;5069;49.306;8.636;2023-02-15T01:58:30;29.83;;;17.17;;
10059;SDS011;5069;49.306;8.636;2023-02-15T02:01:33;31.47;;;17.73;;
10059;SDS011;5069;49.306;8.636;2023-02-15T02:04:45;32.67;;;16.97;;
10059;SDS011;5069;49.306;8.636;2023-02-15T02:07:52;30.37;;;18.30;;
10059;SDS011;5069;49.306;8.636;2023-02-15T02:10:57;33.80;;;16.93;;
10059;SDS011;5069;49.306;8.636;2023-02-15T02:13:59;29.93;;;16.73;;
10059;SDS011;5069;49.306;8.636;2023-02-15T02:17:08;34.77;;;17.10;;
10059;SDS011;5069;49.306;8.636;2023-02-15T02:20:34;30.30;;;17.80;;
10059;SDS011;5069;49.306;8.636;2023-02-15T02:27:24;36.30;;;17.47;;
10059;SDS011;5069;49.306;8.636;2023-02-15T02:30:40;33.57;;;18.03;;
10059;SDS011;5069;49.306;8.636;2023-02-15T02:34:12;34.60;;;16.33;;
10059;SDS011;5069;49.306;8.636;2023-02-15T02:44:19;40.27;;;18.13;;
10059;SDS011;5069;49.306;8.636;2023-02-15T02:50:52;29.93;;;16.70;;
10059;SDS011;5069;49.306;8.636;2023-02-15T02:53:54;30.10;;;16.77;;
10059;SDS011;5069;49.306;8.636;2023-02-15T02:57:00;30.70;;;16.60;;
10059;SDS011;5069;49.306;8.636;2023-02-15T03:00:07;28.60;;;17.03;;
10059;SDS011;5069;49.306;8.636;2023-02-15T03:03:12;44.13;;;17.93;;
10059;SDS011;5069;49.306;8.636;2023-02-15T03:06:20;38.77;;;17.03;;
10059;SDS011;5069;49.306;8.636;2023-02-15T03:09:37;31.13;;;16.20;;
10059;SDS011;5069;49.306;8.636;2023-02-15T03:12:47;29.60;;;16.47;;
10059;SDS011;5069;49.306;8.636;2023-02-15T03:15:49;35.47;;;16.60;;
10059;SDS011;5069;49.306;8.636;2023-02-15T03:19:12;28.97;;;16.63;;
10059;SDS011;5069;49.306;8.636;2023-02-15T03:22:37;31.93;;;17.57;;
10059;SDS011;5069;49.306;8.636;2023-02-15T03:25:47;30.57;;;17.03;;
10059;SDS011;5069;49.306;8.636;2023-02-15T03:28:57;30.63;;;16.47;;
10059;SDS011;5069;49.306;8.636;2023-02-15T03:32:02;35.37;;;17.53;;
10059;SDS011;5069;49.306;8.636;2023-02-15T03:35:06;28.83;;;15.87;;
10059;SDS011;5069;49.306;8.636;2023-02-15T03:38:08;30.23;;;17.07;;
10059;SDS011;5069;49.306;8.636;2023-02-15T03:41:12;31.17;;;16.67;;
10059;SDS011;5069;49.306;8.636;2023-02-15T03:44:25;29.80;;;18.00;;
10059;SDS011;5069;49.306;8.636;2023-02-15T03:47:31;33.57;;;18.10;;
10059;SDS011;5069;49.306;8.636;2023-02-15T03:50:36;31.70;;;17.27;;
10059;SDS011;5069;49.306;8.636;2023-02-15T03:53:58;33.27;;;18.13;;
10059;SDS011;5069;49.306;8.636;2023-02-15T03:57:02;31.50;;;16.97;;
10059;SDS011;5069;49.306;8.636;2023-02-15T04:00:24;32.87;;;18.00;;
10059;SDS011;5069;49.306;8.636;2023-02-15T04:04:03;32.27;;;18.67;;
10059;SDS011;5069;49.306;8.636;2023-02-15T04:07:12;32.47;;;17.87;;
10059;SDS011;5069;49.306;8.636;2023-02-15T04:10:14;33.17;;;18.80;;
10059;SDS011;5069;49.306;8.636;2023-02-15T04:13:34;34.50;;;19.07;;
10059;SDS011;5069;49.306;8.636;2023-02-15T04:16:35;33.87;;;18.00;;
10059;SDS011;5069;49.306;8.636;2023-02-15T04:19:37;33.53;;;18.93;;
10059;SDS011;5069;49.306;8.636;2023-02-15T04:22:56;33.17;;;18.87;;
10059;SDS011;5069;49.306;8.636;2023-02-15T04:26:16;33.90;;;19.53;;
10059;SDS011;5069;49.306;8.636;2023-02-15T04:29:18;29.80;;;17.27;;
10059;SDS011;5069;49.306;8.636;2023-02-15T04:32:21;31.53;;;18.17;;
10059;SDS011;5069;49.306;8.636;2023-02-15T04:35:22;31.47;;;18.53;;
10059;SDS011;5069;49.306;8.636;2023-02-15T04:38:24;33.57;;;18.07;;
10059;SDS011;5069;49.306;8.636;2023-02-15T04:41:25;33.30;;;18.73;;
10059;SDS011;5069;49.306;8.636;2023-02-15T04:44:26;34.33;;;19.13;;
10059;SDS011;5069;49.306;8.636;2023-02-15T04:47:28;36.70;;;18.90;;
10059;SDS011;5069;49.306;8.636;2023-02-15T04:50:29;29.40;;;18.03;;
10059;SDS011;5069;49.306;8.636;2023-02-15T04:53:31;29.50;;;17.33;;
10059;SDS011;5069;49.306;8.636;2023-02-15T04:56:32;36.47;;;20.30;;
10059;SDS011;5069;49.306;8.636;2023-02-15T04:59:35;36.03;;;19.37;;
10059;SDS011;5069;49.306;8.636;2023-02-15T05:02:37;32.50;;;19.43;;
10059;SDS011;5069;49.306;8.636;2023-02-15T05:05:38;31.23;;;18.33;;
10059;SDS011;5069;49.306;8.636;2023-02-15T05:08:40;33.67;;;18.73;;
10059;SDS011;5069;49.306;8.636;2023-02-15T05:11:41;35.83;;;19.27;;
10059;SDS011;5069;49.306;8.636;2023-02-15T05:14:43;31.00;;;18.57;;
10059;SDS011;5069;49.306;8.636;2023-02-15T05:17:44;31.60;;;19.10;;
10059;SDS011;5069;49.306;8.636;2023-02-15T05:20:46;31.33;;;18.33;;
10059;SDS011;5069;49.306;8.636;2023-02-15T05:23:48;32.70;;;19.00;;
10059;SDS011;5069;49.306;8.636;2023-02-15T05:26:49;29.63;;;18.03;;
10059;SDS011;5069;49.306;8.636;2023-02-15T05:30:09;29.00;;;17.27;;
10059;SDS011;5069;49.306;8.636;2023-02-15T05:33:12;28.80;;;17.70;;
10059;SDS011;5069;49.306;8.636;2023-02-15T05:36:14;25.47;;;16.10;;
10059;SDS011;5069;49.306;8.636;2023-02-15T05:39:15;28.93;;;18.67;;
10059;SDS011;5069;49.306;8.636;2023-02-15T05:42:17;29.43;;;17.67;;
10059;SDS011;5069;49.306;8.636;2023-02-15T05:45:18;26.27;;;17.23;;
10059;SDS011;5069;49.306;8.636;2023-02-15T05:48:21;29.53;;;18.37;;
10059;SDS011;5069;49.306;8.636;2023-02-15T05:51:24;29.13;;;16.87;;
10059;SDS011;5069;49.306;8.636;2023-02-15T05:54:26;28.67;;;17.33;;
10059;SDS011;5069;49.306;8.636;2023-02-15T05:57:28;27.23;;;16.87;;
10059;SDS011;5069;49.306;8.636;2023-02-15T06:00:29;27.17;;;17.73;;
10059;SDS011;5069;49.306;8.636;2023-02-15T06:03:33;26.13;;;17.30;;
10059;SDS011;5069;49.306;8.636;2023-02-15T06:06:34;25.33;;;17.37;;
10059;SDS011;5069;49.306;8.636;2023-02-15T06:09:36;28.20;;;16.73;;
10059;SDS011;5069;49.306;8.636;2023-02-15T06:12:37;27.40;;;17.33;;
10059;SDS011;5069;49.306;8.636;2023-02-15T06:15:39;27.03;;;16.67;;
10059;SDS011;5069;49.306;8.636;2023-02-15T06:18:40;28.90;;;16.37;;
10059;SDS011;5069;49.306;8.636;2023-02-15T06:21:42;25.93;;;16.33;;
10059;SDS011;5069;49.306;8.636;2023-02-15T06:24:44;26.17;;;16.07;;
10059;SDS011;5069;49.306;8.636;2023-02-15T06:27:45;26.17;;;16.37;;
10059;SDS011;5069;49.306;8.636;2023-02-15T06:30:47;27.80;;;16.73;;
10059;SDS011;5069;49.306;8.636;2023-02-15T06:33:48;25.03;;;16.20;;
10059;SDS011;5069;49.306;8.636;2023-02-15T06:36:50;28.33;;;16.30;;
10059;SDS011;5069;49.306;8.636;2023-02-15T06:39:51;25.63;;;16.33;;
10059;SDS011;5069;49.306;8.636;2023-02-15T06:42:53;25.13;;;16.17;;
10059;SDS011;5069;49.306;8.636;2023-02-15T06:45:54;25.60;;;15.70;;
10059;SDS011;5069;49.306;8.636;2023-02-15T06:48:56;30.97;;;17.67;;
10059;SDS011;5069;49.306;8.636;2023-02-15T06:51:57;36.03;;;16.43;;
10059;SDS011;5069;49.306;8.636;2023-02-15T06:54:59;30.30;;;15.53;;
10059;SDS011;5069;49.306;8.636;2023-02-15T06:58:00;25.77;;;15.53;;
10059;SDS011;5069;49.306;8.636;2023-02-15T07:01:02;26.17;;;15.37;;
10059;SDS011;5069;49.306;8.636;2023-02-15T07:04:04;23.70;;;15.23;;
10059;SDS011;5069;49.306;8.636;2023-02-15T07:07:09;24.37;;;15.83;;
10059;SDS011;5069;49.306;8.636;2023-02-15T07:10:12;25.60;;;16.30;;
10059;SDS011;5069;49.306;8.636;2023-02-15T07:13:13;23.40;;;15.73;;
10059;SDS011;5069;49.306;8.636;2023-02-15T07:16:15;24.27;;;14.70;;
10059;SDS011;5069;49.306;8.636;2023-02-15T07:19:16;24.27;;;14.40;;
10059;SDS011;5069;49.306;8.636;2023-02-15T07:22:18;24.73;;;14.83;;
10059;SDS011;5069;49.306;8.636;2023-02-15T07:25:19;32.67;;;15.33;;
10059;SDS011;5069;49.306;8.636;2023-02-15T07:28:21;24.57;;;14.53;;
10059;SDS011;5069;49.306;8.636;2023-02-15T07:31:23;28.87;;;16.27;;
10059;SDS011;5069;49.306;8.636;2023-02-15T07:34:24;24.67;;;14.90;;
10059;SDS011;5069;49.306;8.636;2023-02-15T07:37:26;28.63;;;14.77;;
10059;SDS011;5069;49.306;8.636;2023-02-15T07:40:28;23.77;;;15.23;;
10059;SDS011;5069;49.306;8.636;2023-02-15T07:43:29;21.97;;;15.10;;
10059;SDS011;5069;49.306;8.636;2023-02-15T07:46:33;21.87;;;14.87;;
10059;SDS011;5069;49.306;8.636;2023-02-15T07:49:34;25.50;;;14.40;;
10059;SDS011;5069;49.306;8.636;2023-02-15T07:52:36;22.43;;;14.47;;
10059;SDS011;5069;49.306;8.636;2023-02-15T07:55:37;22.00;;;14.10;;
10059;SDS011;5069;49.306;8.636;2023-02-15T07:58:39;23.20;;;14.43;;
10059;SDS011;5069;49.306;8.636;2023-02-15T08:01:53;25.23;;;14.10;;
10059;SDS011;5069;49.306;8.636;2023-02-15T08:04:57;22.07;;;14.13;;
10059;SDS011;5069;49.306;8.636;2023-02-15T08:07:58;22.87;;;14.60;;
10059;SDS011;5069;49.306;8.636;2023-02-15T08:11:00;27.43;;;15.10;;
10059;SDS011;5069;49.306;8.636;2023-02-15T08:14:22;20.77;;;13.57;;
10059;SDS011;5069;49.306;8.636;2023-02-15T08:17:24;19.73;;;13.47;;
10059;SDS011;5069;49.306;8.636;2023-02-15T08:20:25;21.53;;;13.53;;
10059;SDS011;5069;49.306;8.636;2023-02-15T08:23:27;22.13;;;13.90;;
10059;SDS011;5069;49.306;8.636;2023-02-15T08:26:29;21.60;;;13.53;;
10059;SDS011;5069;49.306;8.636;2023-02-15T08:29:31;21.80;;;14.07;;
10059;SDS011;5069;49.306;8.636;2023-02-15T08:32:34;21.03;;;13.83;;
10059;SDS011;5069;49.306;8.636;2023-02-15T08:35:35;19.77;;;13.10;;
10059;SDS011;5069;49.306;8.636;2023-02-15T08:38:37;23.90;;;15.07;;
10059;SDS011;5069;49.306;8.636;2023-02-15T08:41:38;20.63;;;13.60;;
10059;SDS011;5069;49.306;8.636;2023-02-15T08:44:42;21.17;;;13.57;;
10059;SDS011;5069;49.306;8.636;2023-02-15T08:47:43;20.43;;;13.80;;
10059;SDS011;5069;49.306;8.636;2023-02-15T08:50:45;19.60;;;13.23;;
10059;SDS011;5069;49.306;8.636;2023-02-15T08:53:47;22.40;;;14.10;;
10059;SDS011;5069;49.306;8.636;2023-02-15T08:56:51;21.73;;;14.80;;
10059;SDS011;5069;49.306;8.636;2023-02-15T08:59:52;20.83;;;14.33;;
10059;SDS011;5069;49.306;8.636;2023-02-15T09:02:56;22.27;;;14.33;;
10059;SDS011;5069;49.306;8.636;2023-02-15T09:05:58;20.83;;;14.57;;
10059;SDS011;5069;49.306;8.636;2023-02-15T09:09:07;20.13;;;14.10;;
10059;SDS011;5069;49.306;8.636;2023-02-15T09:12:09;24.40;;;15.70;;
10059;SDS011;5069;49.306;8.636;2023-02-15T09:15:10;23.83;;;16.03;;
10059;SDS011;5069;49.306;8.636;2023-02-15T09:18:12;25.50;;;16.40;;
10059;SDS011;5069;49.306;8.636;2023-02-15T09:21:18;26.43;;;17.03;;
10059;SDS011;5069;49.306;8.636;2023-02-15T09:24:22;24.20;;;16.43;;
10059;SDS011;5069;49.306;8.636;2023-02-15T09:27:24;25.70;;;16.97;;
10059;SDS011;5069;49.306;8.636;2023-02-15T09:30:25;24.43;;;16.50;;
10059;SDS011;5069;49.306;8.636;2023-02-15T09:33:27;32.83;;;17.43;;
10059;SDS011;5069;49.306;8.636;2023-02-15T09:36:31;24.30;;;16.47;;
10059;SDS011;5069;49.306;8.636;2023-02-15T09:39:34;27.53;;;15.97;;
10059;SDS011;5069;49.306;8.636;2023-02-15T09:42:47;26.80;;;17.40;;
10059;SDS011;5069;49.306;8.636;2023-02-15T09:49:40;26.33;;;16.90;;
10059;SDS011;5069;49.306;8.636;2023-02-15T10:16:30;27.47;;;17.23;;
10059;SDS011;5069;49.306;8.636;2023-02-15T10:23:29;26.70;;;17.10;;
10059;SDS011;5069;49.306;8.636;2023-02-15T10:33:16;25.33;;;18.13;;
10059;SDS011;5069;49.306;8.636;2023-02-15T10:36:37;27.40;;;18.33;;
10059;SDS011;5069;49.306;8.636;2023-02-15T10:40:07;27.03;;;17.00;;
10059;SDS011;5069;49.306;8.636;2023-02-15T10:50:30;29.13;;;18.53;;
10059;SDS011;5069;49.306;8.636;2023-02-15T10:56:50;31.03;;;20.57;;
10059;SDS011;5069;49.306;8.636;2023-02-15T11:06:22;30.50;;;18.87;;
10059;SDS011;5069;49.306;8.636;2023-02-15T11:09:32;31.10;;;18.53;;
10059;SDS011;5069;49.306;8.636;2023-02-15T11:12:40;25.33;;;17.27;;
10059;SDS011;5069;49.306;8.636;2023-02-15T11:15:45;30.13;;;19.27;;
10059;SDS011;5069;49.306;8.636;2023-02-15T11:19:05;31.13;;;18.80;;
10059;SDS011;5069;49.306;8.636;2023-02-15T11:22:11;29.80;;;19.87;;
10059;SDS011;5069;49.306;8.636;2023-02-15T11:25:23;28.83;;;18.37;;
10059;SDS011;5069;49.306;8.636;2023-02-15T11:28:31;29.23;;;19.77;;
10059;SDS011;5069;49.306;8.636;2023-02-15T11:31:45;28.07;;;18.90;;
10059;SDS011;5069;49.306;8.636;2023-02-15T11:34:52;32.03;;;19.93;;
10059;SDS011;5069;49.306;8.636;2023-02-15T11:37:59;28.17;;;19.60;;
10059;SDS011;5069;49.306;8.636;2023-02-15T11:41:10;34.17;;;21.03;;
10059;SDS011;5069;49.306;8.636;2023-02-15T11:44:20;30.60;;;20.33;;
10059;SDS011;5069;49.306;8.636;2023-02-15T11:47:24;31.27;;;19.87;;
10059;SDS011;5069;49.306;8.636;2023-02-15T11:50:27;30.23;;;19.60;;
10059;SDS011;5069;49.306;8.636;2023-02-15T11:53:32;30.47;;;19.37;;
10059;SDS011;5069;49.306;8.636;2023-02-15T11:56:37;27.77;;;18.57;;
10059;SDS011;5069;49.306;8.636;2023-02-15T11:59:39;33.20;;;21.27;;
10059;SDS011;5069;49.306;8.636;2023-02-15T12:02:48;32.27;;;20.30;;
10059;SDS011;5069;49.306;8.636;2023-02-15T12:05:58;30.93;;;20.43;;
10059;SDS011;5069;49.306;8.636;2023-02-15T12:09:09;32.93;;;20.63;;
10059;SDS011;5069;49.306;8.636;2023-02-15T12:12:25;33.50;;;20.10;;
10059;SDS011;5069;49.306;8.636;2023-02-15T12:15:30;29.43;;;20.43;;
10059;SDS011;5069;49.306;8.636;2023-02-15T12:18:40;31.73;;;20.33;;
10059;SDS011;5069;49.306;8.636;2023-02-15T12:21:46;32.43;;;20.63;;
10059;SDS011;5069;49.306;8.636;2023-02-15T12:24:52;31.73;;;20.17;;
10059;SDS011;5069;49.306;8.636;2023-02-15T12:27:56;31.63;;;20.30;;
10059;SDS011;5069;49.306;8.636;2023-02-15T12:30:58;31.77;;;20.30;;
10059;SDS011;5069;49.306;8.636;2023-02-15T12:34:03;28.03;;;19.40;;
10059;SDS011;5069;49.306;8.636;2023-02-15T12:37:20;30.17;;;20.50;;
10059;SDS011;5069;49.306;8.636;2023-02-15T12:40:26;30.07;;;20.30;;
10059;SDS011;5069;49.306;8.636;2023-02-15T12:43:36;27.23;;;19.77;;
10059;SDS011;5069;49.306;8.636;2023-02-15T12:46:39;30.13;;;20.33;;
10059;SDS011;5069;49.306;8.636;2023-02-15T12:49:40;29.77;;;20.90;;
10059;SDS011;5069;49.306;8.636;2023-02-15T12:52:48;29.33;;;20.80;;
10059;SDS011;5069;49.306;8.636;2023-02-15T12:55:56;30.23;;;20.07;;
10059;SDS011;5069;49.306;8.636;2023-02-15T12:59:05;30.47;;;21.00;;
10059;SDS011;5069;49.306;8.636;2023-02-15T13:02:09;32.53;;;21.07;;
10059;SDS011;5069;49.306;8.636;2023-02-15T13:08:36;29.53;;;20.57;;
10059;SDS011;5069;49.306;8.636;2023-02-15T13:11:47;30.10;;;20.63;;
10059;SDS011;5069;49.306;8.636;2023-02-15T13:14:49;32.43;;;22.00;;
10059;SDS011;5069;49.306;8.636;2023-02-15T13:17:52;27.33;;;19.97;;
10059;SDS011;5069;49.306;8.636;2023-02-15T13:20:57;29.70;;;20.87;;
10059;SDS011;5069;49.306;8.636;2023-02-15T13:24:10;27.83;;;20.40;;
10059;SDS011;5069;49.306;8.636;2023-02-15T13:27:20;30.13;;;20.63;;
10059;SDS011;5069;49.306;8.636;2023-02-15T13:30:26;27.10;;;19.10;;
10059;SDS011;5069;49.306;8.636;2023-02-15T13:33:31;25.33;;;18.87;;
10059;SDS011;5069;49.306;8.636;2023-02-15T13:36:41;25.53;;;19.60;;
10059;SDS011;5069;49.306;8.636;2023-02-15T13:46:50;27.97;;;19.67;;
10059;SDS011;5069;49.306;8.636;2023-02-15T13:56:42;25.97;;;18.30;;
10059;SDS011;5069;49.306;8.636;2023-02-15T14:00:22;25.40;;;19.03;;
10059;SDS011;5069;49.306;8.636;2023-02-15T14:03:44;25.20;;;18.00;;
10059;SDS011;5069;49.306;8.636;2023-02-15T14:07:21;27.80;;;19.67;;
10059;SDS011;5069;49.306;8.636;2023-02-15T14:13:54;27.37;;;20.87;;
10059;SDS011;5069;49.306;8.636;2023-02-15T14:17:10;24.90;;;20.07;;
10059;SDS011;5069;49.306;8.636;2023-02-15T14:20:22;28.47;;;21.53;;
10059;SDS011;5069;49.306;8.636;2023-02-15T14:23:46;28.40;;;20.03;;
10059;SDS011;5069;49.306;8.636;2023-02-15T14:30:24;28.77;;;19.90;;
10059;SDS011;5069;49.306;8.636;2023-02-15T14:33:32;27.20;;;20.57;;
10059;SDS011;5069;49.306;8.636;2023-02-15T14:36:38;27.67;;;19.37;;
10059;SDS011;5069;49.306;8.636;2023-02-15T14:39:43;28.13;;;21.10;;
10059;SDS011;5069;49.306;8.636;2023-02-15T14:46:59;26.73;;;19.83;;
10059;SDS011;5069;49.306;8.636;2023-02-15T14:53:35;29.50;;;19.53;;
10059;SDS011;5069;49.306;8.636;2023-02-15T14:56:39;31.20;;;21.07;;
10059;SDS011;5069;49.306;8.636;2023-02-15T15:02:46;27.17;;;18.87;;
10059;SDS011;5069;49.306;8.636;2023-02-15T15:05:51;26.10;;;19.13;;
10059;SDS011;5069;49.306;8.636;2023-02-15T15:09:11;30.63;;;21.50;;
10059;SDS011;5069;49.306;8.636;2023-02-15T15:18:44;27.60;;;20.30;;
10059;SDS011;5069;49.306;8.636;2023-02-15T15:24:56;24.93;;;17.83;;
10059;SDS011;5069;49.306;8.636;2023-02-15T15:27:59;27.00;;;19.17;;
10059;SDS011;5069;49.306;8.636;2023-02-15T15:49:30;27.70;;;19.40;;
10059;SDS011;5069;49.306;8.636;2023-02-15T15:52:33;26.60;;;19.47;;
10059;SDS011;5069;49.306;8.636;2023-02-15T15:55:47;28.50;;;19.97;;
10059;SDS011;5069;49.306;8.636;2023-02-15T15:58:53;33.17;;;20.13;;
10059;SDS011;5069;49.306;8.636;2023-02-15T16:02:03;27.97;;;19.87;;
10059;SDS011;5069;49.306;8.636;2023-02-15T16:05:07;28.80;;;19.50;;
10059;SDS011;5069;49.306;8.636;2023-02-15T16:08:10;29.73;;;20.53;;
10059;SDS011;5069;49.306;8.636;2023-02-15T16:14:44;30.13;;;20.23;;
10059;SDS011;5069;49.306;8.636;2023-02-15T16:17:49;28.67;;;19.43;;
10059;SDS011;5069;49.306;8.636;2023-02-15T16:20:59;29.00;;;20.20;;
10059;SDS011;5069;49.306;8.636;2023-02-15T16:24:06;28.73;;;19.60;;
10059;SDS011;5069;49.306;8.636;2023-02-15T16:30:30;29.53;;;20.13;;
10059;SDS011;5069;49.306;8.636;2023-02-15T16:33:38;28.60;;;20.30;;
10059;SDS011;5069;49.306;8.636;2023-02-15T16:36:40;28.40;;;19.30;;
10059;SDS011;5069;49.306;8.636;2023-02-15T16:39:42;31.57;;;20.33;;
10059;SDS011;5069;49.306;8.636;2023-02-15T16:42:45;32.30;;;21.27;;
10059;SDS011;5069;49.306;8.636;2023-02-15T16:45:46;28.30;;;20.27;;
10059;SDS011;5069;49.306;8.636;2023-02-15T16:48:49;33.13;;;21.17;;
10059;SDS011;5069;49.306;8.636;2023-02-15T16:52:03;27.80;;;20.27;;
10059;SDS011;5069;49.306;8.636;2023-02-15T16:55:07;27.97;;;20.10;;
10059;SDS011;5069;49.306;8.636;2023-02-15T16:58:23;30.07;;;21.50;;
10059;SDS011;5069;49.306;8.636;2023-02-15T17:01:29;33.13;;;20.97;;
10059;SDS011;5069;49.306;8.636;2023-02-15T17:04:32;27.37;;;19.87;;
10059;SDS011;5069;49.306;8.636;2023-02-15T17:07:42;30.50;;;20.37;;
10059;SDS011;5069;49.306;8.636;2023-02-15T17:17:12;29.07;;;20.57;;
10059;SDS011;5069;49.306;8.636;2023-02-15T17:20:16;30.97;;;20.43;;
10059;SDS011;5069;49.306;8.636;2023-02-15T17:26:32;28.87;;;20.43;;
10059;SDS011;5069;49.306;8.636;2023-02-15T17:29:37;27.67;;;19.63;;
10059;SDS011;5069;49.306;8.636;2023-02-15T17:32:51;31.77;;;20.83;;
10059;SDS011;5069;49.306;8.636;2023-02-15T17:36:06;29.43;;;20.20;;
10059;SDS011;5069;49.306;8.636;2023-02-15T17:39:20;32.57;;;19.93;;
10059;SDS011;5069;49.306;8.636;2023-02-15T17:42:23;35.10;;;23.33;;
10059;SDS011;5069;49.306;8.636;2023-02-15T17:45:26;35.20;;;24.43;;
10059;SDS011;5069;49.306;8.636;2023-02-15T17:48:34;38.53;;;24.77;;
10059;SDS011;5069;49.306;8.636;2023-02-15T17:51:37;36.23;;;24.87;;
10059;SDS011;5069;49.306;8.636;2023-02-15T17:54:39;36.83;;;25.27;;
10059;SDS011;5069;49.306;8.636;2023-02-15T17:57:59;37.17;;;25.80;;
10059;SDS011;5069;49.306;8.636;2023-02-15T18:01:04;37.20;;;25.57;;
10059;SDS011;5069;49.306;8.636;2023-02-15T18:04:27;37.07;;;24.77;;
10059;SDS011;5069;49.306;8.636;2023-02-15T18:07:46;37.00;;;25.80;;
10059;SDS011;5069;49.306;8.636;2023-02-15T18:11:07;41.67;;;25.10;;
10059;SDS011;5069;49.306;8.636;2023-02-15T18:14:29;39.30;;;26.57;;
10059;SDS011;5069;49.306;8.636;2023-02-15T18:17:32;38.13;;;25.60;;
10059;SDS011;5069;49.306;8.636;2023-02-15T18:20:36;38.73;;;25.67;;
10059;SDS011;5069;49.306;8.636;2023-02-15T18:23:38;40.47;;;27.17;;
10059;SDS011;5069;49.306;8.636;2023-02-15T18:26:40;41.03;;;27.13;;
10059;SDS011;5069;49.306;8.636;2023-02-15T18:29:41;37.70;;;25.67;;
10059;SDS011;5069;49.306;8.636;2023-02-15T18:32:43;39.20;;;26.43;;
10059;SDS011;5069;49.306;8.636;2023-02-15T18:35:47;40.07;;;24.57;;
10059;SDS011;5069;49.306;8.636;2023-02-15T18:38:51;39.17;;;25.90;;
10059;SDS011;5069;49.306;8.636;2023-02-15T18:41:54;43.43;;;28.10;;
10059;SDS011;5069;49.306;8.636;2023-02-15T18:44:56;41.97;;;28.23;;
10059;SDS011;5069;49.306;8.636;2023-02-15T18:48:00;42.37;;;27.47;;
10059;SDS011;5069;49.306;8.636;2023-02-15T18:51:02;41.83;;;25.77;;
10059;SDS011;5069;49.306;8.636;2023-02-15T18:54:04;36.27;;;24.00;;
10059;SDS011;5069;49.306;8.636;2023-02-15T18:57:13;33.03;;;23.60;;
10059;SDS011;5069;49.306;8.636;2023-02-15T19:00:23;37.27;;;23.83;;
10059;SDS011;5069;49.306;8.636;2023-02-15T19:03:28;32.27;;;21.83;;
10059;SDS011;5069;49.306;8.636;2023-02-15T19:06:29;35.80;;;24.53;;
10059;SDS011;5069;49.306;8.636;2023-02-15T19:09:31;35.60;;;23.70;;
10059;SDS011;5069;49.306;8.636;2023-02-15T19:12:32;38.93;;;24.10;;
10059;SDS011;5069;49.306;8.636;2023-02-15T19:15:34;39.73;;;26.73;;
10059;SDS011;5069;49.306;8.636;2023-02-15T19:18:35;37.93;;;24.87;;
10059;SDS011;5069;49.306;8.636;2023-02-15T19:21:37;38.60;;;25.47;;
10059;SDS011;5069;49.306;8.636;2023-02-15T19:24:40;53.30;;;32.77;;
10059;SDS011;5069;49.306;8.636;2023-02-15T19:27:43;52.67;;;31.43;;
10059;SDS011;5069;49.306;8.636;2023-02-15T19:30:46;48.23;;;29.00;;
10059;SDS011;5069;49.306;8.636;2023-02-15T19:33:48;41.93;;;27.27;;
10059;SDS011;5069;49.306;8.636;2023-02-15T19:36:50;43.67;;;29.37;;
10059;SDS011;5069;49.306;8.636;2023-02-15T19:39:53;43.47;;;27.77;;
10059;SDS011;5069;49.306;8.636;2023-02-15T19:42:56;42.30;;;27.17;;
10059;SDS011;5069;49.306;8.636;2023-02-15T19:45:58;44.30;;;28.80;;
10059;SDS011;5069;49.306;8.636;2023-02-15T19:48:59;38.70;;;25.20;;
10059;SDS011;5069;49.306;8.636;2023-02-15T19:52:01;43.83;;;26.60;;
10059;SDS011;5069;49.306;8.636;2023-02-15T19:55:02;37.10;;;25.70;;
10059;SDS011;5069;49.306;8.636;2023-02-15T19:58:08;45.37;;;27.83;;
10059;SDS011;5069;49.306;8.636;2023-02-15T20:01:12;41.27;;;26.70;;
10059;SDS011;5069;49.306;8.636;2023-02-15T20:04:13;40.87;;;26.37;;
10059;SDS011;5069;49.306;8.636;2023-02-15T20:07:18;42.20;;;26.67;;
10059;SDS011;5069;49.306;8.636;2023-02-15T20:10:27;38.00;;;25.93;;
10059;SDS011;5069;49.306;8.636;2023-02-15T20:13:30;36.70;;;25.53;;
10059;SDS011;5069;49.306;8.636;2023-02-15T20:16:31;41.37;;;26.10;;
10059;SDS011;5069;49.306;8.636;2023-02-15T20:19:33;41.27;;;27.83;;
10059;SDS011;5069;49.306;8.636;2023-02-15T20:22:34;38.13;;;25.70;;
10059;SDS011;5069;49.306;8.636;2023-02-15T20:25:36;38.83;;;26.70;;
10059;SDS011;5069;49.306;8.636;2023-02-15T20:28:37;38.23;;;25.80;;
10059;SDS011;5069;49.306;8.636;2023-02-15T20:31:39;48.43;;;24.50;;
10059;SDS011;5069;49.306;8.636;2023-02-15T20:34:41;35.33;;;23.30;;
10059;SDS011;5069;49.306;8.636;2023-02-15T20:37:43;38.27;;;24.13;;
10059;SDS011;5069;49.306;8.636;2023-02-15T20:40:48;33.73;;;21.33;;
10059;SDS011;5069;49.306;8.636;2023-02-15T20:47:12;30.77;;;19.33;;
10059;SDS011;5069;49.306;8.636;2023-02-15T20:50:35;27.40;;;19.50;;
10059;SDS011;5069;49.306;8.636;2023-02-15T20:53:35;28.90;;;18.57;;